Time;durP1;ratioP1;P1;durP2;ratioP2;P2;SDS_P1;SDS_P2;PMS_P1;PMS_P2;Temp;Humidity;BMP_temperature;BMP_pressure;BME280_temperature;BME280_humidity;BME280_pressure;Samples;Min_cycle;Max_cycle;Signal;HPM_P1;HPM_P2
2021/09/08 00:00:49;;;;;;;18.40;13.93;;;17.00;84.50;;;;;;4885895;29;20032;-78
2021/09/08 00:03:15;;;;;;;19.02;13.85;;;17.00;84.60;;;;;;4901119;29;20398;-79
2021/09/08 00:05:41;;;;;;;20.10;14.18;;;17.00;84.60;;;;;;4917171;29;20036;-78
2021/09/08 00:08:07;;;;;;;18.23;13.43;;;17.00;84.60;;;;;;4918217;29;20110;-79
2021/09/08 00:10:33;;;;;;;17.08;14.07;;;16.90;84.60;;;;;;4916770;29;20130;-78
2021/09/08 00:12:59;;;;;;;21.48;15.10;;;16.80;84.70;;;;;;4900964;29;20028;-79
2021/09/08 00:15:25;;;;;;;20.77;14.38;;;16.80;85.00;;;;;;4901265;29;20035;-81
2021/09/08 00:17:50;;;;;;;21.30;14.68;;;16.70;85.00;;;;;;4900983;29;20032;-79
2021/09/08 00:20:16;;;;;;;20.35;14.35;;;16.70;85.30;;;;;;4917664;29;20040;-78
2021/09/08 00:22:43;;;;;;;19.25;13.55;;;16.60;85.60;;;;;;4917657;29;20084;-79
2021/09/08 00:25:09;;;;;;;21.25;15.02;;;16.50;86.00;;;;;;4917929;29;20040;-79
2021/09/08 00:27:35;;;;;;;20.52;13.98;;;16.50;86.40;;;;;;4917809;29;20032;-79
2021/09/08 00:30:01;;;;;;;18.58;14.73;;;16.40;86.60;;;;;;4900848;29;20044;-79
2021/09/08 00:32:27;;;;;;;22.52;15.43;;;16.30;86.80;;;;;;4885149;29;20352;-79
2021/09/08 00:34:52;;;;;;;22.33;15.20;;;16.30;87.10;;;;;;4900362;29;20032;-79
2021/09/08 00:37:18;;;;;;;19.98;15.55;;;16.30;87.30;;;;;;4900945;29;20035;-78
2021/09/08 00:39:44;;;;;;;22.38;16.23;;;16.20;87.50;;;;;;4900895;29;20047;-78
2021/09/08 00:42:11;;;;;;;23.48;15.40;;;16.20;87.70;;;;;;4900934;29;20032;-78
2021/09/08 00:44:37;;;;;;;21.80;15.00;;;16.10;88.00;;;;;;4900342;29;20028;-79
2021/09/08 00:47:03;;;;;;;22.90;15.80;;;16.10;88.20;;;;;;4884939;29;20054;-79
2021/09/08 00:49:29;;;;;;;21.10;16.05;;;16.10;88.40;;;;;;4900306;29;20547;-80
2021/09/08 00:51:56;;;;;;;21.25;14.57;;;16.10;88.60;;;;;;4916985;29;20040;-78
2021/09/08 00:54:23;;;;;;;20.77;15.95;;;16.00;89.10;;;;;;4917015;29;20059;-79
2021/09/08 00:56:53;;;;;;;23.92;16.55;;;16.00;88.80;;;;;;4917612;29;20059;-79
2021/09/08 00:59:20;;;;;;;23.17;16.33;;;16.00;89.10;;;;;;4900444;29;20032;-78
2021/09/08 01:01:46;;;;;;;22.85;15.75;;;16.10;89.10;;;;;;4884731;29;20036;-78
2021/09/08 01:04:13;;;;;;;21.02;16.83;;;16.00;89.10;;;;;;4884704;29;20379;-79
2021/09/08 01:06:40;;;;;;;22.52;15.77;;;16.00;89.30;;;;;;4884538;29;20123;-78
2021/09/08 01:09:06;;;;;;;20.13;15.30;;;16.00;89.30;;;;;;4916157;29;20036;-79
2021/09/08 01:11:34;;;;;;;23.63;16.42;;;16.00;89.40;;;;;;4932003;29;20024;-79
2021/09/08 01:13:59;;;;;;;19.90;15.50;;;16.00;89.50;;;;;;4900148;29;20127;-77
2021/09/08 01:16:25;;;;;;;20.45;15.68;;;16.00;89.70;;;;;;4900039;29;20480;-76
2021/09/08 01:18:51;;;;;;;20.35;15.05;;;16.00;89.70;;;;;;4900616;29;20060;-77
2021/09/08 01:21:17;;;;;;;20.83;15.65;;;16.00;89.70;;;;;;4900067;29;20043;-77
2021/09/08 01:23:42;;;;;;;21.77;14.88;;;16.10;89.80;;;;;;4885042;29;20039;-76
2021/09/08 01:26:09;;;;;;;20.88;15.43;;;16.10;89.70;;;;;;4915841;29;20039;-76
2021/09/08 01:28:35;;;;;;;20.90;15.98;;;16.10;89.80;;;;;;4917000;29;20080;-79
2021/09/08 01:31:03;;;;;;;19.83;15.30;;;16.00;89.90;;;;;;4932276;29;20036;-78
2021/09/08 01:33:29;;;;;;;19.88;14.90;;;16.00;89.90;;;;;;4904184;29;20358;-79
2021/09/08 01:35:55;;;;;;;21.63;15.50;;;16.00;89.80;;;;;;4904222;29;20039;-76
2021/09/08 01:38:21;;;;;;;20.65;15.38;;;16.00;89.90;;;;;;4904150;29;20037;-76
2021/09/08 01:40:46;;;;;;;19.17;15.25;;;15.90;90.10;;;;;;4919692;29;20036;-77
2021/09/08 01:43:12;;;;;;;20.88;15.32;;;15.90;90.20;;;;;;4888117;29;20039;-77
2021/09/08 01:45:39;;;;;;;21.15;15.25;;;15.90;90.30;;;;;;4903757;29;20028;-81
2021/09/08 01:48:05;;;;;;;20.73;15.50;;;15.80;90.30;;;;;;4888317;29;20056;-76
2021/09/08 01:50:31;;;;;;;21.00;16.10;;;15.80;90.50;;;;;;4903698;29;20083;-76
2021/09/08 01:52:57;;;;;;;25.30;16.50;;;15.70;90.60;;;;;;4920388;29;20060;-78
2021/09/08 01:55:23;;;;;;;25.05;16.90;;;15.60;90.70;;;;;;4903391;29;20396;-78
2021/09/08 01:57:49;;;;;;;29.70;18.20;;;15.50;90.90;;;;;;4903707;29;20050;-77
2021/09/08 02:00:15;;;;;;;25.23;16.67;;;15.50;91.20;;;;;;4903687;29;20473;-78
2021/09/08 02:02:41;;;;;;;27.15;17.70;;;15.40;91.40;;;;;;4935138;29;20035;-80
2021/09/08 02:05:08;;;;;;;25.67;18.35;;;15.40;91.60;;;;;;4904009;29;20036;-77
2021/09/08 02:07:34;;;;;;;26.48;18.75;;;15.40;91.90;;;;;;4887849;29;20079;-77
2021/09/08 02:10:00;;;;;;;24.60;17.30;;;15.30;92.00;;;;;;4887544;29;20060;-78
2021/09/08 02:12:26;;;;;;;26.30;18.08;;;15.30;92.20;;;;;;4888099;29;20066;-77
2021/09/08 02:14:52;;;;;;;25.13;18.55;;;15.30;92.30;;;;;;4887361;29;20029;-77
2021/09/08 02:17:17;;;;;;;27.33;19.05;;;15.30;92.30;;;;;;4887760;29;20028;-77
2021/09/08 02:19:43;;;;;;;25.15;17.65;;;15.30;92.40;;;;;;4903353;29;20036;-80
2021/09/08 02:22:08;;;;;;;28.00;18.98;;;15.30;92.40;;;;;;4887622;29;20036;-77
2021/09/08 02:24:34;;;;;;;27.30;17.90;;;15.30;92.40;;;;;;4903935;29;20146;-76
2021/09/08 02:27:00;;;;;;;24.58;17.65;;;15.30;92.50;;;;;;4903144;29;20047;-77
2021/09/08 02:29:25;;;;;;;25.92;17.75;;;15.30;92.50;;;;;;4903037;29;20103;-77
2021/09/08 02:31:51;;;;;;;26.10;16.90;;;15.30;92.50;;;;;;4887294;29;20036;-77
2021/09/08 02:34:17;;;;;;;25.65;17.65;;;15.20;92.50;;;;;;4902906;29;20036;-78
2021/09/08 02:36:42;;;;;;;25.63;17.60;;;15.30;92.50;;;;;;4935164;29;20028;-78
2021/09/08 02:39:08;;;;;;;29.25;17.05;;;15.20;92.50;;;;;;4902763;29;20035;-78
2021/09/08 02:41:34;;;;;;;26.98;17.10;;;15.20;92.60;;;;;;4918833;29;20032;-78
2021/09/08 02:44:00;;;;;;;22.48;16.73;;;15.20;92.60;;;;;;4903080;29;20468;-77
2021/09/08 02:46:26;;;;;;;22.77;16.27;;;15.20;92.50;;;;;;4920207;29;20035;-77
2021/09/08 02:48:52;;;;;;;21.70;16.77;;;15.20;92.50;;;;;;4886963;29;20106;-78
2021/09/08 02:51:18;;;;;;;28.52;16.90;;;15.30;92.60;;;;;;4886970;29;20064;-77
2021/09/08 02:53:43;;;;;;;23.83;17.15;;;15.30;92.60;;;;;;4891693;29;20056;-77
2021/09/08 02:56:09;;;;;;;23.60;17.05;;;15.20;92.50;;;;;;4884552;29;20415;-77
2021/09/08 02:58:35;;;;;;;24.45;16.38;;;15.30;92.60;;;;;;4900711;29;20037;-78
2021/09/08 03:01:01;;;;;;;23.10;16.40;;;15.20;92.50;;;;;;4899541;29;20055;-77
2021/09/08 03:03:27;;;;;;;23.30;16.65;;;15.20;92.60;;;;;;4915271;29;20622;-77
2021/09/08 03:05:53;;;;;;;25.75;17.35;;;15.20;92.60;;;;;;4915631;29;20104;-78
2021/09/08 03:08:19;;;;;;;22.90;16.95;;;15.20;92.60;;;;;;4915158;29;20172;-77
2021/09/08 03:10:47;;;;;;;22.45;16.85;;;15.20;92.60;;;;;;4883741;29;20120;-77
2021/09/08 03:13:16;;;;;;;21.02;15.98;;;15.20;92.60;;;;;;4914742;29;20058;-78
2021/09/08 03:15:42;;;;;;;22.77;16.40;;;15.20;92.60;;;;;;4900131;29;20492;-77
2021/09/08 03:18:08;;;;;;;21.65;16.05;;;15.20;92.60;;;;;;4883575;29;20033;-78
2021/09/08 03:20:34;;;;;;;23.73;16.80;;;15.20;92.60;;;;;;4914718;29;20029;-77
2021/09/08 03:23:00;;;;;;;22.55;16.10;;;15.20;92.60;;;;;;4900087;29;20035;-78
2021/09/08 03:25:26;;;;;;;20.55;15.52;;;15.20;92.60;;;;;;4898976;29;20469;-78
2021/09/08 03:27:51;;;;;;;21.45;16.00;;;15.20;92.60;;;;;;4883670;29;20040;-80
2021/09/08 03:30:18;;;;;;;20.98;15.25;;;15.20;92.60;;;;;;4883314;29;20040;-77
2021/09/08 03:32:44;;;;;;;20.77;16.15;;;15.10;92.60;;;;;;4914592;29;20029;-77
2021/09/08 03:35:09;;;;;;;22.10;17.05;;;15.10;92.70;;;;;;4867872;29;20028;-78
2021/09/08 03:37:35;;;;;;;23.00;16.10;;;15.10;92.80;;;;;;4868332;29;20071;-78
2021/09/08 03:40:01;;;;;;;21.35;15.43;;;15.00;92.80;;;;;;4883432;29;20040;-77
2021/09/08 03:42:28;;;;;;;23.13;15.70;;;15.00;92.80;;;;;;4914301;29;20040;-78
2021/09/08 03:44:53;;;;;;;21.88;16.27;;;15.00;92.80;;;;;;4914551;29;20437;-77
2021/09/08 03:47:19;;;;;;;22.17;16.75;;;15.00;92.90;;;;;;4868075;29;20029;-77
2021/09/08 03:49:45;;;;;;;23.60;16.83;;;15.00;92.90;;;;;;4882626;29;20167;-79
2021/09/08 03:52:13;;;;;;;22.17;16.90;;;15.00;92.90;;;;;;4866924;29;20029;-78
2021/09/08 03:54:38;;;;;;;22.23;16.73;;;15.00;92.90;;;;;;4899819;29;20526;-77
2021/09/08 03:57:04;;;;;;;22.50;15.52;;;14.90;92.90;;;;;;4870202;29;20060;-77
2021/09/08 03:59:30;;;;;;;24.90;15.95;;;15.00;92.90;;;;;;4918013;29;20369;-78
2021/09/08 04:01:55;;;;;;;21.15;16.20;;;15.00;92.90;;;;;;4885916;29;20024;-77
2021/09/08 04:04:21;;;;;;;21.20;16.50;;;14.90;93.00;;;;;;4932777;29;20039;-78
2021/09/08 04:06:46;;;;;;;20.92;16.48;;;14.90;93.00;;;;;;4886385;29;20362;-77
2021/09/08 04:09:12;;;;;;;21.65;16.27;;;14.90;93.00;;;;;;4918104;29;20036;-77
2021/09/08 04:11:38;;;;;;;19.60;15.60;;;14.90;93.00;;;;;;4932953;29;20036;-78
2021/09/08 04:14:04;;;;;;;23.65;16.33;;;14.90;93.00;;;;;;4886093;29;20036;-77
2021/09/08 04:16:29;;;;;;;21.48;15.50;;;14.90;93.00;;;;;;4918663;29;20472;-77
2021/09/08 04:18:55;;;;;;;21.13;15.90;;;15.00;93.00;;;;;;4901187;29;20024;-77
2021/09/08 04:21:21;;;;;;;21.58;15.27;;;14.90;93.00;;;;;;4885587;29;20032;-77
2021/09/08 04:23:47;;;;;;;21.48;15.65;;;14.90;93.00;;;;;;4885404;29;20044;-77
2021/09/08 04:26:12;;;;;;;20.45;15.35;;;14.90;93.00;;;;;;4885405;29;20032;-77
2021/09/08 04:28:38;;;;;;;23.58;16.33;;;14.90;93.00;;;;;;4870583;29;20124;-77
2021/09/08 04:31:04;;;;;;;22.63;15.88;;;14.90;93.00;;;;;;4916797;29;20109;-80
2021/09/08 04:33:29;;;;;;;22.35;16.48;;;14.90;93.00;;;;;;4901327;29;20118;-78
2021/09/08 04:35:56;;;;;;;22.02;16.52;;;14.90;93.00;;;;;;4900838;29;20032;-78
2021/09/08 04:38:23;;;;;;;23.65;16.25;;;14.90;93.00;;;;;;4900712;29;20024;-77
2021/09/08 04:40:50;;;;;;;23.70;17.05;;;14.90;93.00;;;;;;4885660;29;20039;-77
2021/09/08 04:43:15;;;;;;;22.13;16.58;;;14.90;93.00;;;;;;4916888;29;20369;-77
2021/09/08 04:45:41;;;;;;;22.33;16.23;;;15.00;92.90;;;;;;4901198;29;20032;-78
2021/09/08 04:48:07;;;;;;;24.38;16.63;;;15.00;92.90;;;;;;4900762;29;20139;-78
2021/09/08 04:50:32;;;;;;;21.33;15.52;;;15.00;92.80;;;;;;4885581;29;20433;-77
2021/09/08 04:52:58;;;;;;;21.50;16.27;;;15.00;92.80;;;;;;4911579;29;20477;-77
2021/09/08 04:55:24;;;;;;;24.95;16.83;;;14.90;92.70;;;;;;4866164;29;20029;-77
2021/09/08 04:57:49;;;;;;;21.42;15.52;;;14.90;92.80;;;;;;4898448;29;20041;-78
2021/09/08 05:00:15;;;;;;;26.38;15.57;;;14.80;92.80;;;;;;4866550;29;20036;-78
2021/09/08 05:02:41;;;;;;;22.42;14.63;;;14.80;92.80;;;;;;4898196;29;20032;-78
2021/09/08 05:05:07;;;;;;;20.25;15.65;;;14.80;92.90;;;;;;4898346;29;20112;-81
2021/09/08 05:07:33;;;;;;;23.25;16.00;;;14.80;92.90;;;;;;4881987;29;20097;-77
2021/09/08 05:09:59;;;;;;;22.80;15.40;;;14.80;92.80;;;;;;4866036;29;20044;-78
2021/09/08 05:12:24;;;;;;;22.95;16.02;;;14.90;92.80;;;;;;4881711;29;20028;-78
2021/09/08 05:14:50;;;;;;;23.08;16.02;;;14.90;92.80;;;;;;4865963;29;20091;-78
2021/09/08 05:17:15;;;;;;;24.98;16.00;;;15.00;92.80;;;;;;4881132;29;20068;-78
2021/09/08 05:19:41;;;;;;;22.95;15.80;;;15.00;92.80;;;;;;4881632;29;20040;-78
2021/09/08 05:22:07;;;;;;;22.88;15.73;;;15.10;92.70;;;;;;4865924;29;20540;-80
2021/09/08 05:24:32;;;;;;;23.48;16.42;;;15.20;92.60;;;;;;4912215;29;20056;-78
2021/09/08 05:26:58;;;;;;;23.23;15.80;;;15.50;92.70;;;;;;4898239;29;20488;-78
2021/09/08 05:29:24;;;;;;;22.25;15.50;;;16.00;92.10;;;;;;4898511;29;20058;-78
2021/09/08 05:31:50;;;;;;;21.08;14.93;;;16.70;91.00;;;;;;4881481;29;20433;-78
2021/09/08 05:34:15;;;;;;;21.88;15.18;;;17.40;89.30;;;;;;4881862;29;20506;-77
2021/09/08 05:36:41;;;;;;;22.58;14.82;;;18.00;86.70;;;;;;4881243;29;20024;-77
2021/09/08 05:39:07;;;;;;;18.90;13.93;;;18.50;83.80;;;;;;4897008;29;20040;-78
2021/09/08 05:41:33;;;;;;;18.27;14.25;;;18.80;81.90;;;;;;4881438;29;20517;-77
2021/09/08 05:43:58;;;;;;;19.10;14.20;;;19.00;80.60;;;;;;4881222;29;20032;-77
2021/09/08 05:46:24;;;;;;;19.27;13.98;;;19.30;79.50;;;;;;4881869;29;20052;-78
2021/09/08 05:48:50;;;;;;;18.42;12.95;;;19.60;78.40;;;;;;4882063;29;20461;-77
2021/09/08 05:51:15;;;;;;;16.52;13.20;;;20.00;77.30;;;;;;4881081;29;20459;-78
2021/09/08 05:53:41;;;;;;;20.50;12.82;;;20.30;76.20;;;;;;4891101;29;20513;-78
2021/09/08 05:56:07;;;;;;;19.42;13.20;;;20.60;74.80;;;;;;4899706;29;20492;-77
2021/09/08 05:58:32;;;;;;;17.50;12.73;;;20.80;73.50;;;;;;4917289;29;20090;-79
2021/09/08 06:00:58;;;;;;;17.85;13.43;;;21.00;72.60;;;;;;4884320;29;20080;-77
2021/09/08 06:03:23;;;;;;;17.33;12.75;;;21.10;71.90;;;;;;4899441;29;20029;-78
2021/09/08 06:05:50;;;;;;;19.27;13.68;;;21.10;71.40;;;;;;4868784;29;20043;-77
2021/09/08 06:08:16;;;;;;;16.38;12.80;;;21.20;70.90;;;;;;4884569;29;20066;-79
2021/09/08 06:10:42;;;;;;;19.63;12.98;;;21.30;70.60;;;;;;4931439;29;20040;-77
2021/09/08 06:13:08;;;;;;;17.60;14.25;;;21.40;70.10;;;;;;4931483;29;20039;-77
2021/09/08 06:15:34;;;;;;;17.55;12.80;;;21.70;69.50;;;;;;4869225;29;20471;-77
2021/09/08 06:18:02;;;;;;;18.30;12.93;;;21.90;68.70;;;;;;4932464;29;20131;-79
2021/09/08 06:20:30;;;;;;;18.10;12.75;;;22.10;68.20;;;;;;4919393;29;20044;-77
2021/09/08 06:22:56;;;;;;;18.75;13.15;;;22.40;67.50;;;;;;4903450;29;20044;-79
2021/09/08 06:25:22;;;;;;;18.63;12.70;;;22.40;66.80;;;;;;4934779;29;20032;-77
2021/09/08 06:27:48;;;;;;;17.40;13.57;;;22.50;66.70;;;;;;4934593;29;20551;-77
2021/09/08 06:30:13;;;;;;;16.35;12.60;;;22.70;66.40;;;;;;4887133;29;20071;-77
2021/09/08 06:32:39;;;;;;;17.33;12.68;;;23.10;65.40;;;;;;4919393;29;20453;-79
2021/09/08 06:35:05;;;;;;;17.42;13.25;;;23.40;64.70;;;;;;4902711;29;20064;-77
2021/09/08 06:37:31;;;;;;;18.48;13.10;;;23.60;63.70;;;;;;4918798;29;20029;-77
2021/09/08 06:39:56;;;;;;;19.58;12.80;;;23.60;63.60;;;;;;4902503;29;20036;-78
2021/09/08 06:42:22;;;;;;;14.07;12.35;;;23.90;63.10;;;;;;4934048;29;20024;-78
2021/09/08 06:44:53;;;;;;;16.85;13.00;;;24.30;62.00;;;;;;4934499;29;20063;-77
2021/09/08 06:47:22;;;;;;;15.00;11.98;;;24.40;61.20;;;;;;4919077;29;20033;-80
2021/09/08 06:49:50;;;;;;;17.00;12.65;;;24.10;60.80;;;;;;4919053;29;20036;-78
2021/09/08 06:52:16;;;;;;;15.30;11.98;;;24.00;61.40;;;;;;4933755;29;20376;-79
2021/09/08 06:54:41;;;;;;;15.77;12.40;;;23.90;61.20;;;;;;4916600;29;20445;-80
2021/09/08 06:57:09;;;;;;;15.23;11.82;;;24.00;61.50;;;;;;4886378;29;20032;-79
2021/09/08 06:59:35;;;;;;;14.30;11.95;;;24.00;61.00;;;;;;4901511;29;20119;-77
2021/09/08 07:02:00;;;;;;;15.90;11.90;;;24.10;60.80;;;;;;4916630;29;20472;-78
2021/09/08 07:04:27;;;;;;;13.85;12.35;;;24.00;60.90;;;;;;4885396;29;20036;-80
2021/09/08 07:06:53;;;;;;;17.60;12.00;;;24.00;60.90;;;;;;4900544;29;20040;-79
2021/09/08 07:09:19;;;;;;;19.08;11.88;;;24.00;61.00;;;;;;4932374;29;20029;-79
2021/09/08 07:11:44;;;;;;;16.23;12.20;;;24.00;61.00;;;;;;4900830;29;20040;-78
2021/09/08 07:14:10;;;;;;;16.10;11.90;;;23.90;60.90;;;;;;4901169;29;20380;-78
2021/09/08 07:16:36;;;;;;;16.05;11.18;;;23.90;61.70;;;;;;4900782;29;20064;-79
2021/09/08 07:19:02;;;;;;;15.45;12.00;;;24.20;60.60;;;;;;4900584;29;20036;-80
2021/09/08 07:21:27;;;;;;;13.70;10.77;;;24.30;60.40;;;;;;4932169;29;20099;-78
2021/09/08 07:23:53;;;;;;;17.75;10.75;;;24.60;60.00;;;;;;4885123;29;20059;-79
2021/09/08 07:26:19;;;;;;;13.77;10.27;;;24.80;59.60;;;;;;4900791;29;20028;-79
2021/09/08 07:28:44;;;;;;;13.60;11.38;;;25.10;59.30;;;;;;4900203;29;20028;-79
2021/09/08 07:31:10;;;;;;;13.23;10.65;;;25.30;58.90;;;;;;4884916;29;20044;-77
2021/09/08 07:33:36;;;;;;;12.98;10.93;;;25.40;57.10;;;;;;4901147;29;20048;-77
2021/09/08 07:36:02;;;;;;;12.55;10.07;;;25.20;57.70;;;;;;4916710;29;20032;-79
2021/09/08 07:38:27;;;;;;;12.55;9.73;;;25.40;57.60;;;;;;4917959;29;20469;-80
2021/09/08 07:40:54;;;;;;;11.63;10.35;;;25.70;57.70;;;;;;4901036;29;20036;-77
2021/09/08 07:43:20;;;;;;;14.05;10.65;;;26.20;56.40;;;;;;4918001;29;20088;-77
2021/09/08 07:45:47;;;;;;;12.45;9.65;;;26.40;55.20;;;;;;4901191;29;20425;-78
2021/09/08 07:48:12;;;;;;;12.52;9.93;;;26.50;55.10;;;;;;4932263;29;20036;-78
2021/09/08 07:50:38;;;;;;;13.02;10.57;;;26.70;55.30;;;;;;4900760;29;20455;-77
2021/09/08 07:53:08;;;;;;;12.07;9.95;;;26.90;54.30;;;;;;4893666;29;1119132;-77
2021/09/08 07:55:35;;;;;;;17.17;9.95;;;26.70;54.40;;;;;;4916940;29;20032;-78
2021/09/08 07:58:01;;;;;;;12.38;9.95;;;26.50;55.00;;;;;;4918562;29;20035;-78
2021/09/08 08:00:27;;;;;;;14.38;9.88;;;26.70;54.10;;;;;;4916993;29;20036;-76
2021/09/08 08:02:52;;;;;;;12.80;9.90;;;26.80;54.10;;;;;;4917095;29;20030;-78
2021/09/08 08:05:19;;;;;;;12.75;10.52;;;26.60;54.90;;;;;;4917117;29;20088;-78
2021/09/08 08:07:46;;;;;;;13.05;10.60;;;26.60;54.60;;;;;;4885992;29;20484;-78
2021/09/08 08:10:14;;;;;;;12.93;9.98;;;26.60;54.50;;;;;;4933037;29;20060;-79
2021/09/08 08:12:40;;;;;;;10.65;9.55;;;26.70;54.60;;;;;;4916571;29;20032;-77
2021/09/08 08:15:07;;;;;;;11.32;9.95;;;27.10;53.90;;;;;;4918191;29;20051;-77
2021/09/08 08:17:33;;;;;;;10.43;9.32;;;27.10;53.60;;;;;;4901237;29;20031;-81
2021/09/08 08:20:00;;;;;;;12.90;9.98;;;26.80;54.70;;;;;;4900510;29;20140;-78
2021/09/08 08:22:26;;;;;;;13.13;9.90;;;27.30;54.40;;;;;;4917772;29;20031;-77
2021/09/08 08:24:52;;;;;;;12.43;9.40;;;27.70;52.70;;;;;;4918107;29;20036;-77
2021/09/08 08:27:18;;;;;;;11.93;8.98;;;27.50;52.70;;;;;;4900765;29;20020;-79
2021/09/08 08:29:44;;;;;;;12.63;9.30;;;27.40;53.10;;;;;;4900770;29;20487;-78
2021/09/08 08:32:10;;;;;;;11.82;9.73;;;27.50;52.70;;;;;;4917751;29;20032;-78
2021/09/08 08:34:35;;;;;;;11.05;9.32;;;27.60;52.30;;;;;;4916287;29;20028;-81
2021/09/08 08:37:01;;;;;;;10.15;8.98;;;27.60;52.00;;;;;;4916296;29;20455;-79
2021/09/08 08:39:27;;;;;;;9.40;8.48;;;27.60;52.30;;;;;;4902269;29;20058;-75
2021/09/08 08:41:52;;;;;;;10.18;8.90;;;27.90;52.00;;;;;;4918065;29;20039;-77
2021/09/08 08:44:24;;;;;;;9.82;8.82;;;27.80;51.80;;;;;;4932937;29;20067;-77
2021/09/08 08:46:51;;;;;;;12.18;8.32;;;27.80;52.30;;;;;;4917329;29;20043;-78
2021/09/08 08:49:20;;;;;;;10.02;9.02;;;28.30;51.40;;;;;;4917070;29;20044;-77
2021/09/08 08:51:46;;;;;;;9.60;8.63;;;28.60;50.40;;;;;;4900770;29;20099;-76
2021/09/08 08:54:12;;;;;;;10.65;8.93;;;29.00;49.80;;;;;;4900530;29;20052;-76
2021/09/08 08:56:38;;;;;;;12.55;8.60;;;29.50;48.80;;;;;;4900984;29;20024;-79
2021/09/08 08:59:03;;;;;;;9.07;7.47;;;29.60;48.20;;;;;;4884439;29;20507;-77
2021/09/08 09:01:32;;;;;;;9.63;8.13;;;29.70;48.60;;;;;;4915828;29;20372;-77
2021/09/08 09:04:06;;;;;;;11.88;8.27;;;29.30;49.00;;;;;;4931586;29;20032;-78
2021/09/08 09:06:40;;;;;;;11.40;9.50;;;29.10;49.70;;;;;;4917296;29;20487;-78
2021/09/08 09:09:18;;;;;;;11.75;8.95;;;29.00;49.60;;;;;;4900627;29;20111;-78
2021/09/08 09:11:47;;;;;;;10.93;9.13;;;28.60;50.10;;;;;;4900226;29;20051;-78
2021/09/08 09:14:14;;;;;;;10.45;8.95;;;28.60;50.20;;;;;;4915803;29;20024;-78
2021/09/08 09:16:41;;;;;;;13.73;8.15;;;28.30;50.80;;;;;;4917330;29;20028;-78
2021/09/08 09:19:09;;;;;;;9.88;8.55;;;28.40;51.00;;;;;;4916206;29;20032;-77
2021/09/08 09:21:35;;;;;;;9.45;8.45;;;28.50;50.70;;;;;;4900026;29;20059;-77
2021/09/08 09:24:03;;;;;;;12.40;8.55;;;28.40;50.60;;;;;;4915957;29;20028;-77
2021/09/08 09:26:35;;;;;;;12.02;8.55;;;29.00;50.50;;;;;;4899935;29;20032;-77
2021/09/08 09:29:18;;;;;;;9.60;8.57;;;29.30;49.60;;;;;;4917236;29;20024;-78
2021/09/08 09:32:13;;;;;;;15.52;8.20;;;29.40;49.60;;;;;;4917179;29;20115;-80
2021/09/08 09:34:41;;;;;;;9.23;7.68;;;29.20;49.10;;;;;;4891968;29;20095;-76
2021/09/08 09:37:08;;;;;;;11.07;8.70;;;29.00;49.70;;;;;;4931648;29;20035;-78
2021/09/08 09:39:36;;;;;;;10.73;8.50;;;29.10;49.40;;;;;;4900104;29;20469;-78
2021/09/08 09:42:12;;;;;;;8.52;7.68;;;29.50;48.90;;;;;;4916749;29;20031;-77
2021/09/08 09:44:40;;;;;;;15.23;8.68;;;29.80;48.40;;;;;;4900376;29;20056;-79
2021/09/08 09:47:06;;;;;;;9.13;8.05;;;30.20;48.30;;;;;;4916831;29;20068;-78
2021/09/08 09:49:35;;;;;;;12.23;8.00;;;30.60;47.70;;;;;;4917314;29;20029;-78
2021/09/08 09:52:07;;;;;;;9.50;7.30;;;30.60;46.90;;;;;;4900886;29;20034;-78
2021/09/08 09:54:33;;;;;;;9.95;7.88;;;30.60;47.00;;;;;;4936414;29;20060;-77
2021/09/08 09:57:00;;;;;;;8.13;7.28;;;30.20;46.90;;;;;;4920236;29;20560;-77
2021/09/08 09:59:26;;;;;;;8.65;7.45;;;30.20;47.40;;;;;;4919551;29;20491;-77
2021/09/08 10:01:51;;;;;;;10.48;7.30;;;30.30;47.00;;;;;;4919364;29;20037;-80
2021/09/08 10:04:17;;;;;;;10.93;8.05;;;30.40;47.00;;;;;;4903861;29;20035;-77
2021/09/08 10:06:44;;;;;;;8.45;7.55;;;30.50;46.40;;;;;;4920956;29;20039;-78
2021/09/08 10:09:14;;;;;;;10.35;7.63;;;30.70;46.40;;;;;;4919018;29;20032;-77
2021/09/08 10:11:44;;;;;;;10.50;7.35;;;31.10;45.70;;;;;;4903380;29;20035;-77
2021/09/08 10:14:23;;;;;;;12.30;8.30;;;31.40;45.70;;;;;;4903560;29;20039;-77
2021/09/08 10:16:49;;;;;;;10.57;8.15;;;30.90;45.70;;;;;;4935444;29;20080;-79
2021/09/08 10:19:25;;;;;;;12.73;7.55;;;30.40;46.30;;;;;;4919295;29;20028;-77
2021/09/08 10:22:05;;;;;;;8.85;8.02;;;30.10;47.10;;;;;;4903309;29;20044;-79
2021/09/08 10:24:31;;;;;;;11.85;8.63;;;30.20;48.30;;;;;;4920044;29;20068;-78
2021/09/08 10:26:57;;;;;;;8.00;7.20;;;30.30;47.10;;;;;;4934024;29;20040;-77
2021/09/08 10:29:27;;;;;;;9.43;8.20;;;30.50;47.10;;;;;;4902818;29;20024;-77
2021/09/08 10:31:58;;;;;;;7.63;6.88;;;30.70;46.60;;;;;;4934199;29;20056;-79
2021/09/08 10:34:24;;;;;;;8.43;7.50;;;30.60;44.90;;;;;;4920229;29;20469;-79
2021/09/08 10:36:50;;;;;;;11.45;6.85;;;30.80;45.90;;;;;;4919834;29;20043;-80
2021/09/08 10:39:18;;;;;;;8.95;7.63;;;30.80;44.60;;;;;;4919917;29;20028;-78
2021/09/08 10:41:48;;;;;;;9.88;7.53;;;31.00;44.20;;;;;;4935157;29;20027;-78
2021/09/08 10:44:16;;;;;;;9.75;6.88;;;31.10;43.40;;;;;;4902959;29;20027;-78
2021/09/08 10:46:50;;;;;;;7.63;6.55;;;31.20;43.80;;;;;;4919686;29;20044;-78
2021/09/08 10:49:38;;;;;;;8.10;6.78;;;31.20;43.90;;;;;;4919589;29;20128;-78
2021/09/08 10:52:04;;;;;;;7.95;7.07;;;31.40;42.40;;;;;;4902369;29;20032;-78
2021/09/08 10:54:30;;;;;;;7.20;6.60;;;31.50;42.60;;;;;;4919577;29;20056;-77
2021/09/08 10:56:56;;;;;;;7.40;6.68;;;31.30;42.00;;;;;;4933839;29;20589;-82
2021/09/08 10:59:22;;;;;;;10.27;6.78;;;31.10;42.80;;;;;;4918921;29;20381;-77
2021/09/08 11:01:54;;;;;;;8.60;6.65;;;31.00;43.20;;;;;;4919412;29;20032;-78
2021/09/08 11:04:20;;;;;;;8.95;7.20;;;30.80;44.20;;;;;;4917896;29;20528;-77
2021/09/08 11:06:48;;;;;;;7.10;6.50;;;30.80;42.20;;;;;;4918135;29;20039;-77
2021/09/08 11:09:16;;;;;;;7.88;6.45;;;30.70;42.60;;;;;;4919271;29;20039;-78
2021/09/08 11:11:59;;;;;;;6.47;5.93;;;30.60;42.70;;;;;;4919285;29;20536;-78
2021/09/08 11:14:51;;;;;;;6.93;6.22;;;30.40;41.20;;;;;;4934832;29;20574;-77
2021/09/08 11:17:26;;;;;;;8.93;6.47;;;30.20;42.00;;;;;;4902388;29;20035;-77
2021/09/08 11:19:54;;;;;;;8.35;6.85;;;30.50;42.90;;;;;;4902450;29;20032;-76
2021/09/08 11:22:20;;;;;;;6.88;6.15;;;30.70;42.70;;;;;;4901990;29;20055;-78
2021/09/08 11:25:04;;;;;;;9.32;6.82;;;30.50;42.30;;;;;;4917859;29;20032;-78
2021/09/08 11:27:30;;;;;;;7.53;6.70;;;30.40;42.70;;;;;;4901636;29;20024;-78
2021/09/08 11:30:05;;;;;;;7.70;6.50;;;30.40;43.30;;;;;;4901587;29;20040;-77
2021/09/08 11:32:47;;;;;;;7.35;6.65;;;30.50;43.40;;;;;;4933209;29;20024;-78
2021/09/08 11:35:13;;;;;;;8.15;6.05;;;30.60;42.00;;;;;;4919003;29;20087;-77
2021/09/08 11:37:43;;;;;;;8.60;6.43;;;30.70;42.50;;;;;;4933315;29;20032;-80
2021/09/08 11:40:09;;;;;;;11.73;7.00;;;30.50;42.70;;;;;;4933284;29;20088;-80
2021/09/08 11:42:42;;;;;;;8.50;6.32;;;30.20;43.00;;;;;;4902432;29;20028;-76
2021/09/08 11:45:09;;;;;;;9.93;7.10;;;29.90;43.20;;;;;;4917130;29;20036;-78
2021/09/08 11:47:34;;;;;;;8.75;6.50;;;29.70;43.40;;;;;;4901430;29;20079;-77
2021/09/08 11:50:01;;;;;;;11.50;7.13;;;29.70;42.20;;;;;;4904553;29;20040;-86
2021/09/08 11:52:26;;;;;;;8.05;7.28;;;29.70;42.40;;;;;;4935187;29;20486;-77
2021/09/08 11:54:52;;;;;;;7.35;6.22;;;29.70;42.90;;;;;;4917281;29;20048;-80
2021/09/08 11:57:25;;;;;;;11.73;6.80;;;29.70;41.80;;;;;;4917030;29;20468;-80
2021/09/08 11:59:54;;;;;;;9.13;7.63;;;29.60;42.80;;;;;;4917103;29;20418;-79
2021/09/08 12:02:20;;;;;;;10.13;7.20;;;29.50;42.70;;;;;;4917915;29;20103;-80
2021/09/08 12:04:46;;;;;;;8.00;6.30;;;29.50;43.20;;;;;;4916708;29;20457;-79
2021/09/08 12:07:11;;;;;;;10.60;6.45;;;29.50;43.20;;;;;;4900807;29;20036;-79
2021/09/08 12:09:40;;;;;;;8.75;5.97;;;29.60;43.00;;;;;;4917787;29;20424;-79
2021/09/08 12:12:10;;;;;;;9.15;7.03;;;29.70;42.40;;;;;;4903349;29;20028;-82
2021/09/08 12:14:38;;;;;;;7.88;6.95;;;29.60;42.10;;;;;;4921035;29;20028;-80
2021/09/08 12:17:19;;;;;;;7.72;6.93;;;29.70;42.70;;;;;;4904457;29;20052;-79
2021/09/08 12:19:59;;;;;;;11.65;7.10;;;29.70;42.50;;;;;;4905393;29;20068;-79
2021/09/08 12:22:35;;;;;;;8.88;7.07;;;29.70;42.80;;;;;;4905935;29;20028;-78
2021/09/08 12:25:16;;;;;;;7.60;6.63;;;29.50;42.80;;;;;;4937683;29;20380;-78
2021/09/08 12:27:50;;;;;;;7.78;6.97;;;29.40;42.70;;;;;;4906889;29;20111;-77
2021/09/08 12:30:19;;;;;;;11.65;6.70;;;29.30;42.60;;;;;;4923061;29;20087;-79
2021/09/08 12:32:54;;;;;;;7.40;6.70;;;29.10;41.90;;;;;;4907011;29;20036;-78